5OH8 weather

Joseph Skilken & Co Heliport
Columbus, Ohio, United States

Public forecast

Using degrees Fahrenheit for public forecast. Weather courtesy of forecast.io.

METAR (pilot weather report)

Closest report is John Glenn Columbus International Airport, 5.5 nm (10.1 km) ENE. Retrieved 2019/05/24 17:51 UTC (29 minutes ago):

KCMH 241751Z 36003KT 10SM SCT041 SCT100 BKN110 25/13 A3014 RMK AO2 RAB1659E22 SLP200 P0000 60000 T02500128 10250 20178 58005

TAF (pilot weather forecast)

Closest forecast is John Glenn Columbus International Airport, 5.5 nm (10.1 km) ENE. Retrieved 2019/05/24 18:42 UTC (0 seconds ago):

TAF KCMH 241741Z 2418/2518 VRB03KT P6SM SCT060 SCT100 BKN250 FM250100 14003KT P6SM SCT050 FM251200 20005KT P6SM SCT060 FM251500 23010G18KT P6SM SCT040 FM251700 24014G24KT P6SM SCT040